Latest Weather Observations for Dennes Point

IDT60901

Issued at 7:31 am EDT Thursday 22 February 2018 (issued every 10 minutes, with the page automatically refreshed every 10 minutes)

About weather observations | Map of Hobart area stations | Latest observations for Hobart area | Other Formats
Station Details ID: 094255 Name: DENNES POINT Lat: -43.06 Lon: 147.36 Height: 5.67 m
Data from the previous 72 hours. | See also: Recent months at Dennes Point
Date/Time
EDT
Temp
°C
App
Temp
°C
Dew
Point
°C
Rel
Hum
%
Delta-T
°C
Wind Press
QNH
hPa
Press
MSL
hPa
Rain since
9am
mm
Dir  Spd
km/h
Gust
km/h
Spd
kts
Gust
kts
22/07:30am 12.3 10.8 10.4 88 1.0 S 9 11 5 6 1018.5 1018.4 0.0
22/07:00am 12.1 10.5 10.2 88 1.0 SSW 9 11 5 6 1018.2 1018.1 0.0
22/06:30am 12.5 10.6 10.4 87 1.1 S 11 13 6 7 1018.1 1018.0 0.0
22/06:00am 12.4 10.8 10.1 86 1.2 SSW 9 9 5 5 1017.9 1017.8 0.0
22/05:30am 12.1 10.1 10.0 87 1.1 S 11 13 6 7 1017.8 1017.7 0.0
22/05:00am 12.1 10.0 9.8 86 1.2 S 11 15 6 8 1017.6 1017.5 0.0
22/04:30am 11.8 10.0 9.4 85 1.2 SSW 9 11 5 6 1017.6 1017.5 0.0
22/04:00am 11.9 9.4 9.8 87 1.1 S 13 17 7 9 1017.8 1017.7 0.0
22/03:30am 12.0 10.4 10.1 88 1.0 SSW 9 11 5 6 1017.8 1017.7 0.0
22/03:00am 12.1 10.1 10.0 87 1.1 SSW 11 13 6 7 1018.1 1018.0 0.0
22/02:30am 12.2 10.2 10.3 88 1.0 SSW 11 13 6 7 1018.1 1018.0 0.0
22/02:00am 12.3 10.8 10.5 89 0.9 SSW 9 11 5 6 1018.1 1018.0 0.0
22/01:30am 12.4 10.9 10.6 89 0.9 SSW 9 11 5 6 1018.3 1018.2 0.0
22/01:00am 12.5 11.0 10.4 87 1.1 SSW 9 11 5 6 1018.4 1018.3 0.0
22/12:30am 12.8 11.3 10.7 87 1.1 SSW 9 11 5 6 1018.5 1018.4 0.0
22/12:00am 13.1 11.2 10.6 85 1.3 SSW 11 13 6 7 1018.6 1018.5 0.0
 
Date/Time
EDT
Temp
°C
App
Temp
°C
Dew
Point
°C
Rel
Hum
%
Delta-T
°C
Wind Press
QNH
hPa
Press
MSL
hPa
Rain since
9am
mm
Dir  Spd
km/h
Gust
km/h
Spd
kts
Gust
kts
21/11:30pm 13.3 11.8 10.7 84 1.4 SW 9 11 5 6 1018.8 1018.7 0.0
21/11:00pm 13.8 12.7 10.6 81 1.7 SW 7 9 4 5 1019.0 1018.9 0.0
21/10:30pm 13.8 12.4 9.6 76 2.2 SSW 7 9 4 5 1018.9 1018.8 0.0
21/10:00pm 14.2 12.9 9.2 72 2.5 SSW 6 6 3 3 1018.8 1018.7 0.0
21/09:30pm 14.6 13.4 9.6 72 2.6 SSW 6 7 3 4 1018.5 1018.4 0.0
21/09:00pm 15.6 14.9 10.2 70 2.8 SE 4 6 2 3 1018.1 1018.0 0.0
21/08:30pm 16.2 15.2 10.3 68 3.1 SSE 6 7 3 4 1017.8 1017.7 0.0
21/08:00pm 16.7 15.7 11.0 69 3.1 SE 7 9 4 5 1017.5 1017.4 0.0
21/07:30pm 17.0 15.7 11.3 69 3.1 ESE 9 11 5 6 1017.3 1017.2 0.0
21/07:00pm 17.4 16.4 10.3 63 3.8 SE 6 9 3 5 1017.1 1017.0 0.0
21/06:30pm 17.3 15.6 11.1 67 3.3 ESE 11 15 6 8 1016.9 1016.8 0.0
21/06:00pm 17.8 15.1 11.6 67 3.4 ESE 17 20 9 11 1016.8 1016.7 0.0
21/05:30pm 18.6 16.3 11.9 65 3.7 ESE 15 19 8 10 1017.0 1016.9 0.0
21/05:00pm 18.9 16.1 11.5 62 4.1 ESE 17 22 9 12 1017.1 1017.0 0.0
21/04:30pm 19.5 17.2 11.8 61 4.3 ESE 15 20 8 11 1017.0 1016.9 0.0
21/04:00pm 18.5 15.8 10.3 59 4.4 ESE 15 20 8 11 1017.2 1017.1 0.0
21/03:30pm 18.7 16.3 10.0 57 4.6 ESE 13 17 7 9 1017.4 1017.3 0.0
21/03:00pm 19.3 17.1 9.5 53 5.2 ESE 11 15 6 8 1017.6 1017.5 0.0
21/02:30pm 19.2 16.7 9.7 54 5.0 ESE 13 17 7 9 1017.8 1017.7 0.0
21/02:00pm 19.6 16.9 10.3 55 5.0 ESE 15 17 8 9 1018.0 1017.9 0.0
21/01:30pm 19.1 16.7 10.1 56 4.8 ESE 13 15 7 8 1018.5 1018.4 0.0
21/01:00pm 18.8 17.4 9.0 53 5.1 E 6 9 3 5 1018.3 1018.2 0.0
21/12:30pm 18.0 17.1 9.1 56 4.6 ENE 4 6 2 3 1018.5 1018.4 0.0
21/12:00pm 17.6 16.3 9.2 58 4.4 ENE 6 7 3 4 1018.8 1018.7 0.0
21/11:30am 17.1 15.5 8.8 58 4.3 NNE 7 9 4 5 1019.0 1018.9 0.0
21/11:00am 16.7 13.8 9.6 63 3.7 NNE 15 19 8 10 1018.7 1018.6 0.0
21/10:30am 15.3 11.4 9.4 68 3.0 NNE 20 24 11 13 1018.9 1018.8 0.0
21/10:00am 14.4 10.4 9.2 71 2.6 N 20 24 11 13 1019.3 1019.2 0.0
21/09:30am 14.2 11.9 9.0 71 2.6 N 11 13 6 7 1019.6 1019.5 0.0
21/09:00am 14.0 10.7 9.4 74 2.3 NNE 17 20 9 11 1019.9 1019.8 0.0
21/08:30am 13.4 10.4 9.1 75 2.2 NNE 15 19 8 10 1020.0 1019.9 0.0
21/08:00am 13.3 9.5 9.0 75 2.2 NNE 19 22 10 12 1019.9 1019.8 0.0
21/07:30am 13.3 9.9 9.0 75 2.2 NNE 17 20 9 11 1019.7 1019.6 0.0
21/07:00am 13.2 11.3 9.1 76 2.1 N 9 17 5 9 1019.6 1019.5 0.0
21/06:30am 13.2 10.9 8.9 75 2.2 N 11 15 6 8 1019.7 1019.6 0.0
21/06:00am 13.3 10.6 8.8 74 2.3 N 13 15 7 8 1019.4 1019.3 0.0
21/05:30am 13.4 10.6 8.7 73 2.4 N 13 17 7 9 1019.7 1019.6 0.0
21/05:00am 13.6 10.9 8.9 73 2.4 N 13 20 7 11 1019.5 1019.4 0.0
21/04:30am 13.9 10.7 8.5 70 2.7 NNE 15 19 8 10 1019.8 1019.7 0.0
21/04:00am 13.9 10.0 8.5 70 2.7 NNE 19 24 10 13 1019.7 1019.6 0.0
21/03:30am 14.1 10.2 8.7 70 2.7 NNE 19 24 10 13 1020.0 1019.9 0.0
21/03:00am 13.9 9.9 8.1 68 2.9 NNE 19 22 10 12 1020.4 1020.4 0.0
21/02:30am 13.8 10.1 8.0 68 2.9 NNE 17 19 9 10 1020.5 1020.5 0.0
21/02:00am 14.0 9.5 8.4 69 2.8 NE 22 26 12 14 1020.4 1020.4 0.0
21/01:30am 13.9 9.7 8.1 68 2.9 NNE 20 24 11 13 1020.9 1020.9 0.0
21/01:00am 13.9 10.3 8.5 70 2.7 NNE 17 20 9 11 1021.2 1021.2 0.0
21/12:30am 14.0 10.2 9.0 72 2.5 NNE 19 22 10 12 1021.0 1021.0 0.0
21/12:00am 14.2 10.2 9.2 72 2.5 NNE 20 24 11 13 1021.4 1021.4 0.0
 
Date/Time
EDT
Temp
°C
App
Temp
°C
Dew
Point
°C
Rel
Hum
%
Delta-T
°C
Wind Press
QNH
hPa
Press
MSL
hPa
Rain since
9am
mm
Dir  Spd
km/h
Gust
km/h
Spd
kts
Gust
kts
20/11:30pm 14.3 9.9 9.1 71 2.6 NNE 22 26 12 14 1021.9 1021.9 0.0
20/11:00pm 14.5 9.8 9.1 70 2.7 NNE 24 28 13 15 1022.1 1022.1 0.0
20/10:30pm 14.6 9.8 8.8 68 2.9 NE 24 30 13 16 1022.4 1022.4 0.0
20/10:00pm 14.6 10.2 8.8 68 2.9 NE 22 28 12 15 1022.7 1022.7 0.0
20/09:30pm 14.5 11.0 8.9 69 2.8 NE 17 22 9 12 1022.7 1022.7 0.0
20/09:00pm 14.7 10.9 9.1 69 2.8 ENE 19 24 10 13 1022.6 1022.6 0.0
20/08:30pm 14.9 10.1 8.8 67 3.1 NE 24 30 13 16 1022.2 1022.2 0.0
20/08:00pm 15.2 10.4 8.7 65 3.3 ENE 24 30 13 16 1022.2 1022.2 0.0
20/07:30pm 15.6 11.1 8.4 62 3.6 NE 22 28 12 15 1022.4 1022.4 0.0
20/07:00pm 16.2 11.3 8.4 60 3.9 ENE 24 28 13 15 1022.0 1022.0 0.0
20/06:30pm 16.6 14.1 8.1 57 4.3 E 11 17 6 9 1022.2 1022.2 0.0
20/06:00pm 16.7 14.4 7.6 55 4.5 E 9 13 5 7 1022.8 1022.8 0.0
20/05:30pm 16.9 14.2 7.5 54 4.7 ESE 11 17 6 9 1022.8 1022.8 0.0
20/05:00pm 16.9 13.1 7.5 54 4.7 ESE 17 22 9 12 1023.2 1023.2 0.0
20/04:30pm 16.8 12.9 6.9 52 4.9 ESE 17 20 9 11 1023.6 1023.6 0.0
20/04:00pm 16.9 12.7 7.3 53 4.8 ESE 19 26 10 14 1023.8 1023.8 0.0
20/03:30pm 16.9 13.1 7.5 54 4.7 ESE 17 24 9 13 1024.2 1024.2 0.0
20/03:00pm 17.1 13.1 8.3 56 4.5 ESE 19 24 10 13 1024.4 1024.4 0.0
20/02:30pm 17.0 13.2 7.4 53 4.8 ESE 17 20 9 11 1024.8 1024.8 0.0
20/02:00pm 16.9 14.4 6.7 51 5.0 ESE 9 15 5 8 1025.1 1025.1 0.0
20/01:30pm 16.6 13.6 6.1 50 5.1 ESE 11 17 6 9 1025.4 1025.4 0.0
20/01:00pm 16.2 14.2 6.1 51 4.9 ENE 6 9 3 5 1025.7 1025.7 0.0
20/12:30pm 16.2 13.5 5.8 50 5.0 E 9 11 5 6 1026.0 1026.0 0.0
20/12:00pm 15.7 13.1 5.9 52 4.7 E 9 13 5 7 1026.3 1026.3 0.0
20/11:30am 15.5 12.9 6.2 54 4.5 ENE 9 13 5 7 1026.4 1026.4 0.0
20/11:00am 14.9 12.9 6.2 56 4.2 NE 6 7 3 4 1026.8 1026.8 0.0
20/10:30am 14.4 12.5 6.5 59 3.8 NE 6 13 3 7 1027.1 1027.1 0.0
20/10:00am 14.1 11.5 6.0 58 3.8 ENE 9 13 5 7 1027.2 1027.2 0.0
20/09:30am 14.1 12.4 5.7 57 4.0 E 4 9 2 5 1027.3 1027.3 0.0
20/09:00am 13.8 12.1 5.7 58 3.8 NE 4 7 2 4 1027.2 1027.2 0.0
20/08:30am 13.4 11.3 5.6 59 3.7 SSE 6 13 3 7 1027.5 1027.5 0.0
20/08:00am 12.9 11.1 5.6 61 3.4 SSW 4 6 2 3 1027.2 1027.2 0.0
20/07:30am 12.6 10.5 6.0 64 3.1 SSW 6 7 3 4 1027.0 1027.0 0.0
20/07:00am 12.3 10.2 5.9 65 3.0 SSW 6 7 3 4 1027.0 1027.0 0.0
20/06:30am 12.3 10.0 5.7 64 3.1 SSW 7 9 4 5 1026.8 1026.8 0.0
20/06:00am 12.3 10.0 5.7 64 3.1 SSW 7 9 4 5 1026.8 1026.8 0.0
20/05:30am 12.3 9.6 5.5 63 3.2 SSW 9 11 5 6 1026.6 1026.6 0.0
20/05:00am 12.3 9.5 5.0 61 3.3 SSW 9 11 5 6 1026.4 1026.4 0.0
20/04:30am 12.3 9.8 5.0 61 3.4 SSW 7 11 4 6 1026.6 1026.6 0.0
20/04:00am 12.3 9.8 4.8 60 3.4 SSW 7 9 4 5 1026.6 1026.6 0.0
20/03:30am 12.3 9.8 4.8 60 3.4 S 7 9 4 5 1026.6 1026.6 0.0
20/03:00am 12.2 9.9 4.7 60 3.4 SSW 6 7 3 4 1026.7 1026.7 0.0
20/02:30am 12.1 9.6 4.6 60 3.4 SSW 7 9 4 5 1026.8 1026.8 0.0
20/02:00am 12.1 9.5 4.3 59 3.5 S 7 7 4 4 1026.8 1026.8 0.0
20/01:30am 12.1 9.7 4.3 59 3.5 S 6 6 3 3 1026.8 1026.8 0.0
20/01:00am 12.7 10.7 4.2 56 3.8 NNE 4 6 2 3 1026.5 1026.5 0.0
20/12:30am 12.4 10.0 4.4 58 3.6 ESE 6 11 3 6 1026.7 1026.7 0.0
20/12:00am 12.4 10.0 4.4 58 3.6 SSE 6 11 3 6 1026.9 1026.9 0.0
 
Date/Time
EDT
Temp
°C
App
Temp
°C
Dew
Point
°C
Rel
Hum
%
Delta-T
°C
Wind Press
QNH
hPa
Press
MSL
hPa
Rain since
9am
mm
Dir  Spd
km/h
Gust
km/h
Spd
kts
Gust
kts
19/11:30pm 12.4 10.3 4.1 57 3.7 SSE 4 7 2 4 1027.2 1027.2 0.0
19/11:00pm 12.6 10.2 4.3 57 3.7 S 6 11 3 6 1027.4 1027.4 0.0
19/10:30pm 12.7 10.2 4.7 58 3.7 SSE 7 15 4 8 1027.4 1027.4 0.0
19/10:00pm 12.7 10.3 5.1 60 3.5 S 7 11 4 6 1027.2 1027.2 0.0
19/09:30pm 12.7 10.5 5.4 61 3.4 S 6 9 3 5 1026.9 1026.9 0.0
19/09:00pm 12.8 10.0 5.2 60 3.5 SSW 9 13 5 7 1026.8 1026.8 0.0
19/08:30pm 12.8 10.3 4.8 58 3.7 S 7 13 4 7 1026.8 1026.8 0.0
19/08:00pm 13.0 10.4 4.2 55 4.0 S 7 13 4 7 1026.8 1026.8 0.0
19/07:30pm 13.2 10.7 4.6 56 3.9 SSE 7 15 4 8 1026.7 1026.7 0.0
19/07:00pm 13.4 10.7 5.6 59 3.6 S 9 15 5 8 1026.2 1026.2 0.0
19/06:30pm 13.8 10.7 5.4 57 3.9 SSW 11 17 6 9 1026.1 1026.1 0.0
19/06:00pm 14.7 11.5 5.2 53 4.4 SSE 11 20 6 11 1026.1 1026.1 0.0
19/05:30pm 14.9 11.9 4.0 48 5.0 SE 9 19 5 10 1026.1 1026.1 0.0
19/05:00pm 15.3 11.0 3.1 44 5.5 S 15 24 8 13 1026.1 1026.1 0.0
19/04:30pm 15.4 10.8 3.9 46 5.3 SSE 17 28 9 15 1026.0 1026.0 0.0
19/04:00pm 16.0 12.9 3.8 44 5.6 SSE 9 19 5 10 1026.0 1026.0 0.0
19/03:30pm 16.0 12.9 3.8 44 5.6 SSW 9 17 5 9 1025.9 1025.9 0.0
19/03:00pm 15.7 11.0 3.2 43 5.6 SSW 17 22 9 12 1025.8 1025.8 0.0
19/02:30pm 15.6 12.5 3.4 44 5.6 SW 9 19 5 10 1025.7 1025.7 0.0
19/02:00pm 15.4 12.3 3.5 45 5.4 S 9 17 5 9 1025.7 1025.7 0.0
19/01:30pm 15.0 12.2 5.0 51 4.7 SE 9 15 5 8 1025.7 1025.7 0.0
19/01:00pm 14.9 11.9 4.0 48 5.0 SW 9 19 5 10 1025.5 1025.5 0.0
19/12:30pm 14.9 12.4 4.6 50 4.8 S 7 13 4 7 1025.3 1025.3 0.0
19/12:00pm 14.5 10.9 3.0 46 5.1 SSW 11 17 6 9 1025.2 1025.2 0.0
19/11:30am 14.5 11.8 3.6 48 4.9 S 7 15 4 8 1025.2 1025.2 0.0
19/11:00am 14.2 11.2 3.9 50 4.7 S 9 17 5 9 1025.1 1025.1 0.0
19/10:30am 13.6 10.6 4.2 53 4.3 SSW 9 17 5 9 1025.0 1025.0 0.0
19/10:00am 13.4 10.6 2.9 49 4.6 SSW 7 15 4 8 1024.6 1024.6 0.0
19/09:30am 13.6 10.3 2.5 47 4.9 SSW 9 17 5 9 1024.3 1024.3 0.0
19/09:00am 13.6 10.3 2.5 47 4.9 SSW 9 17 5 9 1024.3 1024.3 0.0
19/08:30am 13.1 9.7 4.0 54 4.1 SSW 11 17 6 9 1024.0 1024.0 0.0
19/08:00am 12.6 9.4 5.1 60 3.4 SSW 11 17 6 9 1023.6 1023.6 0.0

Latest Capital City Observations: Canberra | Sydney | Melbourne | Brisbane | Adelaide | Perth | Hobart | Darwin

Other Formats:

Comma delimited format used in spreadsheet applications
http://www.bom.gov.au/fwo/IDT60901/IDT60901.94988.axf

JavaScript Object Notation format (JSON) in row-major order
http://www.bom.gov.au/fwo/IDT60901/IDT60901.94988.json